createdAt,value
2022-08-01T00:00:47.014Z,14.73
2022-08-01T00:03:38.342Z,13.83
2022-08-01T00:06:32.566Z,13.80
2022-08-01T00:09:23.905Z,13.47
2022-08-01T00:12:13.882Z,13.70
2022-08-01T00:15:02.956Z,12.10
2022-08-01T00:17:57.608Z,17.93
2022-08-01T00:20:47.646Z,13.57
2022-08-01T00:23:38.094Z,12.90
2022-08-01T00:26:27.161Z,11.97
2022-08-01T00:30:09.734Z,13.53
2022-08-01T00:32:31.351Z,12.50
2022-08-01T00:35:20.443Z,12.60
2022-08-01T00:38:12.995Z,15.03
2022-08-01T00:41:05.560Z,13.80
2022-08-01T00:43:55.442Z,13.40
2022-08-01T00:46:47.522Z,15.87
2022-08-01T00:49:37.328Z,15.10
2022-08-01T00:52:27.027Z,15.40
2022-08-01T00:55:23.339Z,15.93
2022-08-01T00:58:16.087Z,15.47
2022-08-01T01:01:08.818Z,15.20
2022-08-01T01:04:00.038Z,14.53
2022-08-01T01:06:58.586Z,16.03
2022-08-01T01:09:56.806Z,14.60
2022-08-01T01:12:50.167Z,15.20
2022-08-01T01:15:44.103Z,16.00
2022-08-01T01:18:36.386Z,15.20
2022-08-01T01:21:52.878Z,15.07
2022-08-01T01:24:48.324Z,18.20
2022-08-01T01:27:43.323Z,15.70
2022-08-01T01:30:35.071Z,14.10
2022-08-01T01:33:26.570Z,15.90
2022-08-01T01:36:20.260Z,14.27
2022-08-01T01:39:22.221Z,14.77
2022-08-01T01:42:14.595Z,14.27
2022-08-01T01:45:08.514Z,15.90
2022-08-01T01:48:10.795Z,15.40
2022-08-01T01:51:01.538Z,14.37
2022-08-01T01:53:56.470Z,16.60
2022-08-01T01:56:51.137Z,15.20
2022-08-01T01:59:41.655Z,16.00
2022-08-01T02:02:31.549Z,17.07
2022-08-01T02:05:37.831Z,15.87
2022-08-01T02:08:27.404Z,14.50
2022-08-01T02:11:23.238Z,16.17
2022-08-01T02:14:14.748Z,17.53
2022-08-01T02:17:05.176Z,16.17
2022-08-01T02:19:55.771Z,16.57
2022-08-01T02:22:49.588Z,17.50
2022-08-01T02:26:09.183Z,16.93
2022-08-01T02:28:59.600Z,16.13
2022-08-01T02:31:57.222Z,15.23
2022-08-01T02:34:57.445Z,13.90
2022-08-01T02:37:48.600Z,10.97
2022-08-01T02:40:38.688Z,10.47
2022-08-01T02:43:32.426Z,10.77
2022-08-01T02:46:26.150Z,9.60
2022-08-01T02:49:18.876Z,10.97
2022-08-01T02:52:20.003Z,12.30
2022-08-01T02:55:11.963Z,11.20
2022-08-01T02:58:04.471Z,11.20
2022-08-01T03:00:54.090Z,11.23
2022-08-01T03:03:45.062Z,10.80
2022-08-01T03:06:42.399Z,11.37
2022-08-01T03:09:39.257Z,11.20
2022-08-01T03:12:31.721Z,11.50
2022-08-01T03:15:24.820Z,11.63
2022-08-01T03:18:18.726Z,12.33
2022-08-01T03:21:11.928Z,10.47
2022-08-01T03:24:23.243Z,13.00
2022-08-01T03:27:19.004Z,13.73
2022-08-01T03:30:14.151Z,12.57
2022-08-01T03:33:09.439Z,11.67
2022-08-01T03:36:10.389Z,14.80
2022-08-01T03:39:01.138Z,11.67
2022-08-01T03:41:56.952Z,12.60
2022-08-01T03:44:51.044Z,12.50
2022-08-01T03:47:45.081Z,12.17
2022-08-01T03:50:38.200Z,10.70
2022-08-01T03:53:29.580Z,10.60
2022-08-01T03:56:21.806Z,9.37
2022-08-01T03:59:14.576Z,10.10
2022-08-01T04:02:07.962Z,10.40
2022-08-01T04:05:00.469Z,11.30
2022-08-01T04:07:57.095Z,10.90
2022-08-01T04:10:46.524Z,9.23
2022-08-01T04:13:44.329Z,8.17
2022-08-01T04:16:34.208Z,8.00
2022-08-01T04:19:26.462Z,7.40
2022-08-01T04:22:18.101Z,8.73
2022-08-01T04:25:10.141Z,7.33
2022-08-01T04:28:00.097Z,7.80
2022-08-01T04:30:51.037Z,7.90
2022-08-01T04:33:44.089Z,7.63
2022-08-01T04:36:35.982Z,7.93
2022-08-01T04:39:32.222Z,8.00
2022-08-01T04:42:33.343Z,7.60
2022-08-01T04:45:26.558Z,8.60
2022-08-01T04:48:17.557Z,7.40
2022-08-01T04:51:07.017Z,7.83
2022-08-01T04:54:02.579Z,7.87
2022-08-01T04:56:57.878Z,6.33
2022-08-01T04:59:47.371Z,8.10
2022-08-01T05:02:38.017Z,9.03
2022-08-01T05:05:33.868Z,8.13
2022-08-01T05:08:25.608Z,7.10
2022-08-01T05:11:30.279Z,8.00
2022-08-01T05:14:25.028Z,7.13
2022-08-01T05:17:21.875Z,7.37
2022-08-01T05:20:11.632Z,8.17
2022-08-01T05:23:10.349Z,7.70
2022-08-01T05:26:06.609Z,8.23
2022-08-01T05:29:22.714Z,6.63
2022-08-01T05:32:14.683Z,7.70
2022-08-01T05:35:04.364Z,7.40
2022-08-01T05:37:53.866Z,7.30
2022-08-01T05:40:43.272Z,5.97
2022-08-01T05:43:33.921Z,6.60
2022-08-01T05:46:27.662Z,6.13
2022-08-01T05:49:26.435Z,7.50
2022-08-01T05:52:19.093Z,7.00
2022-08-01T05:55:10.370Z,5.87
2022-08-01T05:58:00.166Z,6.30
2022-08-01T06:00:58.817Z,5.97
2022-08-01T06:03:51.034Z,5.40
2022-08-01T06:06:49.120Z,5.57
2022-08-01T06:09:41.855Z,6.53
2022-08-01T06:12:44.943Z,4.90
2022-08-01T06:15:34.842Z,5.90
2022-08-01T06:18:40.461Z,5.23
2022-08-01T06:21:58.263Z,6.10
2022-08-01T06:24:52.203Z,5.07
2022-08-01T06:27:48.246Z,5.70
2022-08-01T06:30:38.515Z,6.53
2022-08-01T06:33:34.000Z,5.70
2022-08-01T06:36:26.092Z,5.10
2022-08-01T06:39:18.799Z,5.03
2022-08-01T06:42:15.969Z,5.40
2022-08-01T06:45:05.168Z,5.17
2022-08-01T06:48:06.338Z,5.13
2022-08-01T06:51:16.485Z,5.20
2022-08-01T06:54:17.875Z,5.00
2022-08-01T06:57:18.812Z,4.80
2022-08-01T07:00:25.113Z,4.90
2022-08-01T07:03:19.826Z,6.07
2022-08-01T07:06:10.571Z,9.47
2022-08-01T07:09:07.412Z,9.40
2022-08-01T07:12:00.212Z,8.67
2022-08-01T07:14:50.815Z,7.00
2022-08-01T07:17:42.576Z,8.77
2022-08-01T07:20:36.280Z,7.67
2022-08-01T07:23:46.141Z,7.67
2022-08-01T07:26:35.508Z,6.87
2022-08-01T07:29:30.758Z,6.00
2022-08-01T07:32:21.531Z,4.40
2022-08-01T07:35:13.460Z,4.63
2022-08-01T07:38:02.912Z,5.73
2022-08-01T07:40:55.895Z,5.10
2022-08-01T07:43:53.246Z,4.60
2022-08-01T07:46:45.698Z,3.90
2022-08-01T07:49:40.585Z,4.78
2022-08-01T07:52:32.381Z,3.17
2022-08-01T07:55:27.828Z,4.03
2022-08-01T07:58:16.968Z,3.10
2022-08-01T08:01:06.206Z,3.70
2022-08-01T08:03:55.382Z,3.63
2022-08-01T08:06:52.740Z,4.28
2022-08-01T08:09:44.164Z,3.60
2022-08-01T08:12:47.424Z,4.53
2022-08-01T08:15:38.003Z,4.47
2022-08-01T08:18:27.511Z,3.72
2022-08-01T08:21:23.546Z,3.83
2022-08-01T08:24:27.378Z,4.03
2022-08-01T08:27:19.769Z,3.10
2022-08-01T08:30:10.476Z,3.67
2022-08-01T08:33:00.930Z,2.70
2022-08-01T08:35:54.298Z,2.70
2022-08-01T08:38:46.262Z,3.10
2022-08-01T08:41:38.024Z,3.10
2022-08-01T08:44:29.589Z,4.53
2022-08-01T08:47:24.450Z,4.10
2022-08-01T08:50:13.618Z,4.80
2022-08-01T08:53:06.599Z,4.28
2022-08-01T08:55:56.747Z,4.00
2022-08-01T08:58:48.079Z,3.08
2022-08-01T09:01:37.208Z,2.70
2022-08-01T09:04:29.182Z,2.75
2022-08-01T09:07:18.314Z,2.38
2022-08-01T09:10:08.000Z,2.17
2022-08-01T09:13:06.744Z,2.58
2022-08-01T09:16:00.001Z,2.03
2022-08-01T09:18:53.787Z,2.30
2022-08-01T09:21:57.938Z,2.25
2022-08-01T09:24:59.908Z,2.10
2022-08-01T09:27:49.223Z,1.60
2022-08-01T09:30:43.618Z,2.20
2022-08-01T09:33:49.002Z,2.05
2022-08-01T09:36:49.337Z,2.17
2022-08-01T09:39:41.326Z,1.92
2022-08-01T09:42:31.009Z,1.80
2022-08-01T09:45:41.700Z,1.35
2022-08-01T09:48:38.019Z,1.50
2022-08-01T09:51:57.855Z,1.40
2022-08-01T09:54:46.370Z,1.50
2022-08-01T09:57:35.520Z,1.30
2022-08-01T10:00:44.458Z,1.40
2022-08-01T10:03:34.686Z,1.80
2022-08-01T10:06:28.534Z,1.40
2022-08-01T10:09:40.258Z,1.10
2022-08-01T10:12:30.450Z,1.42
2022-08-01T10:15:22.179Z,1.02
2022-08-01T10:18:26.851Z,1.25
2022-08-01T10:21:44.044Z,0.90
2022-08-01T10:24:33.517Z,0.75
2022-08-01T10:27:37.795Z,0.93
2022-08-01T10:30:27.713Z,0.70
2022-08-01T10:33:51.547Z,1.00
2022-08-01T10:36:32.588Z,0.80
2022-08-01T10:39:22.002Z,0.80
2022-08-01T10:42:15.608Z,0.80
2022-08-01T10:45:05.746Z,0.90
2022-08-01T10:48:01.280Z,0.82
2022-08-01T10:50:51.835Z,0.80
2022-08-01T10:53:48.829Z,0.85
2022-08-01T10:56:41.944Z,0.70
2022-08-01T10:59:50.742Z,0.85
2022-08-01T11:02:45.546Z,0.70
2022-08-01T11:05:36.212Z,0.60
2022-08-01T11:08:26.854Z,0.60
2022-08-01T11:11:16.329Z,0.60
2022-08-01T11:14:10.445Z,0.60
2022-08-01T11:17:21.149Z,0.70
2022-08-01T11:20:11.874Z,0.60
2022-08-01T11:23:28.674Z,0.90
2022-08-01T11:26:18.693Z,0.70
2022-08-01T11:29:22.795Z,0.90
2022-08-01T11:32:31.258Z,0.82
2022-08-01T11:35:34.403Z,0.90
2022-08-01T11:38:28.844Z,1.00
2022-08-01T11:41:21.151Z,0.70
2022-08-01T11:44:30.300Z,0.70
2022-08-01T11:47:21.272Z,0.80
2022-08-01T11:50:32.404Z,0.93
2022-08-01T11:53:22.163Z,0.70
2022-08-01T11:56:11.185Z,0.90
2022-08-01T11:59:01.942Z,0.80
2022-08-01T12:01:52.539Z,0.90
2022-08-01T12:04:49.336Z,0.75
2022-08-01T12:07:41.461Z,0.80
2022-08-01T12:10:49.726Z,0.90
2022-08-01T12:13:44.237Z,0.90
2022-08-01T12:16:34.457Z,0.80
2022-08-01T12:19:26.463Z,0.90
2022-08-01T12:22:16.475Z,0.80
2022-08-01T12:25:10.555Z,0.80
2022-08-01T12:28:02.800Z,0.80
2022-08-01T12:30:52.423Z,0.90
2022-08-01T12:33:41.364Z,0.88
2022-08-01T12:36:30.982Z,1.02
2022-08-01T12:39:20.001Z,0.80
2022-08-01T12:42:11.822Z,0.90
2022-08-01T12:45:00.989Z,1.38
2022-08-01T12:47:50.394Z,1.10
2022-08-01T12:50:40.696Z,1.25
2022-08-01T12:53:40.713Z,1.40
2022-08-01T12:56:34.030Z,1.20
2022-08-01T12:59:27.391Z,1.00
2022-08-01T13:02:16.115Z,1.08
2022-08-01T13:05:05.655Z,1.45
2022-08-01T13:07:56.390Z,1.30
2022-08-01T13:10:45.818Z,1.63
2022-08-01T13:13:40.631Z,1.38
2022-08-01T13:16:56.002Z,1.20
2022-08-01T13:19:45.333Z,1.50
2022-08-01T13:22:34.823Z,1.67
2022-08-01T13:25:26.061Z,1.70
2022-08-01T13:28:19.843Z,2.10
2022-08-01T13:31:11.671Z,2.08
2022-08-01T13:34:02.489Z,1.80
2022-08-01T13:36:51.496Z,1.80
2022-08-01T13:39:45.038Z,1.80
2022-08-01T13:42:33.982Z,1.73
2022-08-01T13:45:23.160Z,1.20
2022-08-01T13:48:19.061Z,1.45
2022-08-01T13:51:21.801Z,1.60
2022-08-01T13:54:11.571Z,1.40
2022-08-01T13:57:01.097Z,2.00
2022-08-01T13:59:50.009Z,1.50
2022-08-01T14:02:38.905Z,1.42
2022-08-01T14:05:27.792Z,1.65
2022-08-01T14:08:18.101Z,1.75
2022-08-01T14:11:07.593Z,1.67
2022-08-01T14:13:56.671Z,1.30
2022-08-01T14:16:46.739Z,1.20
2022-08-01T14:19:38.909Z,1.27
2022-08-01T14:22:29.367Z,1.00
2022-08-01T14:25:24.002Z,1.40
2022-08-01T14:28:30.983Z,1.30
2022-08-01T14:31:19.920Z,1.30
2022-08-01T14:34:09.598Z,1.20
2022-08-01T14:36:58.578Z,1.48
2022-08-01T14:39:54.350Z,1.25
2022-08-01T14:42:45.473Z,1.50
2022-08-01T14:45:34.745Z,1.38
2022-08-01T14:48:23.662Z,1.83
2022-08-01T14:51:12.663Z,1.67
2022-08-01T14:54:01.811Z,1.45
2022-08-01T14:56:54.040Z,1.52
2022-08-01T14:59:44.295Z,1.48
2022-08-01T15:02:33.236Z,1.70
2022-08-01T15:05:22.448Z,1.75
2022-08-01T15:08:12.479Z,1.90
2022-08-01T15:11:01.980Z,1.58
2022-08-01T15:14:12.123Z,1.90
2022-08-01T15:17:02.391Z,1.80
2022-08-01T15:19:53.813Z,1.92
2022-08-01T15:22:42.677Z,1.33
2022-08-01T15:25:41.308Z,1.63
2022-08-01T15:28:31.111Z,1.67
2022-08-01T15:31:20.022Z,1.85
2022-08-01T15:34:10.281Z,1.80
2022-08-01T15:36:59.741Z,2.03
2022-08-01T15:39:48.587Z,2.00
2022-08-01T15:42:37.504Z,2.17
2022-08-01T15:48:39.975Z,1.65
2022-08-01T15:51:30.482Z,1.50
2022-08-01T15:54:19.472Z,1.42
2022-08-01T15:57:09.384Z,2.22
2022-08-01T15:59:58.335Z,1.95
2022-08-01T16:02:47.394Z,1.70
2022-08-01T16:05:42.937Z,2.47
2022-08-01T16:08:34.439Z,1.70
2022-08-01T16:11:26.822Z,1.70
2022-08-01T16:14:15.767Z,1.58
2022-08-01T16:17:04.723Z,1.77
2022-08-01T16:19:53.810Z,2.72
2022-08-01T16:22:42.715Z,1.67
2022-08-01T16:25:34.833Z,1.35
2022-08-01T16:28:23.832Z,1.92
2022-08-01T16:31:21.967Z,1.45
2022-08-01T16:34:23.567Z,2.20
2022-08-01T16:37:12.886Z,2.17
2022-08-01T16:40:01.806Z,1.88
2022-08-01T16:42:52.857Z,1.58
2022-08-01T16:45:47.886Z,2.28
2022-08-01T16:48:36.879Z,1.80
2022-08-01T16:51:25.796Z,1.60
2022-08-01T16:54:24.569Z,1.57
2022-08-01T16:57:15.686Z,2.40
2022-08-01T17:00:08.457Z,1.83
2022-08-01T17:02:57.574Z,1.80
2022-08-01T17:05:46.563Z,1.70
2022-08-01T17:08:35.872Z,2.00
2022-08-01T17:11:35.727Z,1.97
2022-08-01T17:14:24.677Z,1.57
2022-08-01T17:17:15.138Z,2.03
2022-08-01T17:20:04.360Z,1.80
2022-08-01T17:22:53.354Z,1.87
2022-08-01T17:25:42.799Z,2.23
2022-08-01T17:28:31.809Z,1.50
2022-08-01T17:31:20.846Z,2.27
2022-08-01T17:34:11.276Z,2.73
2022-08-01T17:37:00.240Z,2.20
2022-08-01T17:39:49.221Z,2.10
2022-08-01T17:42:39.826Z,1.90
2022-08-01T17:45:29.483Z,2.00
2022-08-01T17:48:18.493Z,2.13
2022-08-01T17:51:08.773Z,2.00
2022-08-01T17:53:58.338Z,2.30
2022-08-01T17:56:47.455Z,2.00
2022-08-01T17:59:36.415Z,2.03
2022-08-01T18:02:25.667Z,1.83
2022-08-01T18:05:15.666Z,1.60
2022-08-01T18:08:06.599Z,2.20
2022-08-01T18:10:56.569Z,1.87
2022-08-01T18:13:45.717Z,1.80
2022-08-01T18:16:34.846Z,1.40
2022-08-01T18:19:23.858Z,1.67
2022-08-01T18:22:31.369Z,2.10
2022-08-01T18:25:23.496Z,1.97
2022-08-01T18:28:23.315Z,2.73
2022-08-01T18:31:21.740Z,2.03
2022-08-01T18:34:10.635Z,2.10
2022-08-01T18:36:59.782Z,1.93
2022-08-01T18:39:50.558Z,2.30
2022-08-01T18:42:42.396Z,1.57
2022-08-01T18:45:32.817Z,1.70
2022-08-01T18:48:21.717Z,1.83
2022-08-01T18:51:11.576Z,2.00
2022-08-01T18:54:00.777Z,2.27
2022-08-01T18:56:49.665Z,2.10
2022-08-01T18:59:39.929Z,2.07
2022-08-01T19:02:29.119Z,1.93
2022-08-01T19:05:18.150Z,2.13
2022-08-01T19:08:08.238Z,1.83
2022-08-01T19:10:57.561Z,2.20
2022-08-01T19:13:46.582Z,2.00
2022-08-01T19:16:36.967Z,2.40
2022-08-01T19:19:28.106Z,2.00
2022-08-01T19:22:18.532Z,2.10
2022-08-01T19:25:07.891Z,2.00
2022-08-01T19:27:58.031Z,1.90
2022-08-01T19:30:47.417Z,2.30
2022-08-01T19:33:44.547Z,2.20
2022-08-01T19:36:33.817Z,1.80
2022-08-01T19:39:23.659Z,2.30
2022-08-01T19:42:14.258Z,2.17
2022-08-01T19:45:05.405Z,2.10
2022-08-01T19:47:56.840Z,2.33
2022-08-01T19:50:48.743Z,2.77
2022-08-01T19:53:38.514Z,2.63
2022-08-01T19:56:29.909Z,2.60
2022-08-01T19:59:19.783Z,2.77
2022-08-01T20:02:09.003Z,2.60
2022-08-01T20:04:59.707Z,2.30
2022-08-01T20:07:50.098Z,2.10
2022-08-01T20:10:39.188Z,2.50
2022-08-01T20:13:39.120Z,2.07
2022-08-01T20:16:29.404Z,1.90
2022-08-01T20:19:18.871Z,2.33
2022-08-01T20:22:08.618Z,2.10
2022-08-01T20:25:00.610Z,2.10
2022-08-01T20:27:49.661Z,2.47
2022-08-01T20:30:39.787Z,2.47
2022-08-01T20:33:29.501Z,1.90
2022-08-01T20:36:25.619Z,2.40
2022-08-01T20:39:15.727Z,2.70
2022-08-01T20:42:07.640Z,2.70
2022-08-01T20:44:57.537Z,2.30
2022-08-01T20:47:48.256Z,2.50
2022-08-01T20:50:56.456Z,2.10
2022-08-01T20:53:46.835Z,2.60
2022-08-01T20:56:38.361Z,2.80
2022-08-01T20:59:40.057Z,2.80
2022-08-01T21:02:51.552Z,2.70
2022-08-01T21:05:55.912Z,3.07
2022-08-01T21:08:49.866Z,3.53
2022-08-01T21:11:41.083Z,3.57
2022-08-01T21:14:37.163Z,4.90
2022-08-01T21:17:33.948Z,3.30
2022-08-01T21:20:28.753Z,2.23
2022-08-01T21:23:23.044Z,2.60
2022-08-01T21:26:12.223Z,14.37
2022-08-01T21:29:02.437Z,72.37
2022-08-01T21:32:11.490Z,2.53
2022-08-01T21:35:02.145Z,92.13
2022-08-01T21:37:52.136Z,169.80
2022-08-01T21:40:41.963Z,96.70
2022-08-01T21:43:33.422Z,2.97
2022-08-01T21:46:23.164Z,110.90
2022-08-01T21:49:14.365Z,87.60
2022-08-01T21:52:08.654Z,257.73
2022-08-01T21:55:02.671Z,293.47
2022-08-01T21:58:05.666Z,342.80
2022-08-01T22:00:57.262Z,3.60
2022-08-01T22:03:47.821Z,346.23
2022-08-01T22:06:39.003Z,450.27
2022-08-01T22:09:28.356Z,440.40
2022-08-01T22:12:19.144Z,458.10
2022-08-01T22:15:09.652Z,440.60
2022-08-01T22:17:59.324Z,528.40
2022-08-01T22:20:48.929Z,515.47
2022-08-01T22:23:39.442Z,464.70
2022-08-01T22:26:29.700Z,519.40
2022-08-01T22:29:18.775Z,509.53
2022-08-01T22:32:08.338Z,414.70
2022-08-01T22:34:58.756Z,470.07
2022-08-01T22:37:57.338Z,512.17
2022-08-01T22:40:50.860Z,477.03
2022-08-01T22:43:41.186Z,479.17
2022-08-01T22:46:34.264Z,478.73
2022-08-01T22:49:28.681Z,459.00
2022-08-01T22:52:19.560Z,432.77
2022-08-01T22:55:10.662Z,427.40
2022-08-01T22:58:03.573Z,379.03
2022-08-01T23:00:55.757Z,370.40
2022-08-01T23:03:47.825Z,302.20
2022-08-01T23:06:40.341Z,239.67
2022-08-01T23:09:52.847Z,262.67
2022-08-01T23:12:38.970Z,258.27
2022-08-01T23:15:29.944Z,214.83
2022-08-01T23:18:19.928Z,188.57
2022-08-01T23:21:09.039Z,170.67
2022-08-01T23:23:58.600Z,146.63
2022-08-01T23:26:48.914Z,146.20
2022-08-01T23:29:37.882Z,168.23
2022-08-01T23:32:28.226Z,131.33
2022-08-01T23:35:17.266Z,144.20
2022-08-01T23:38:06.410Z,129.23
2022-08-01T23:40:55.298Z,141.23
2022-08-01T23:43:52.293Z,126.93
2022-08-01T23:46:41.542Z,111.97
2022-08-01T23:49:32.029Z,122.00
2022-08-01T23:52:21.683Z,69.07
2022-08-01T23:55:14.783Z,247.57
2022-08-01T23:58:06.051Z,227.23
